createdAt,value
2018-11-28T00:00:30.382Z,5.03
2018-11-28T00:03:02.193Z,5.33
2018-11-28T00:05:32.479Z,4.53
2018-11-28T00:08:02.780Z,4.23
2018-11-28T00:10:33.049Z,3.63
2018-11-28T00:13:03.295Z,3.97
2018-11-28T00:15:33.561Z,4.37
2018-11-28T00:18:03.846Z,4.17
2018-11-28T00:20:34.200Z,4.27
2018-11-28T00:23:04.464Z,3.77
2018-11-28T00:25:34.746Z,4.23
2018-11-28T00:28:05.055Z,4.20
2018-11-28T00:30:35.364Z,4.70
2018-11-28T00:33:05.720Z,4.10
2018-11-28T00:35:36.081Z,3.90
2018-11-28T00:38:06.439Z,4.00
2018-11-28T00:40:36.770Z,4.40
2018-11-28T00:43:07.510Z,3.80
2018-11-28T00:45:37.761Z,4.00
2018-11-28T00:48:08.122Z,4.17
2018-11-28T00:50:38.407Z,3.57
2018-11-28T00:53:08.678Z,3.30
2018-11-28T00:55:38.925Z,3.83
2018-11-28T00:58:09.197Z,3.53
2018-11-28T01:00:39.490Z,4.00
2018-11-28T01:03:09.751Z,3.80
2018-11-28T01:05:39.994Z,5.57
2018-11-28T01:08:10.302Z,4.80
2018-11-28T01:10:40.567Z,3.37
2018-11-28T01:13:10.830Z,3.30
2018-11-28T01:15:41.093Z,4.07
2018-11-28T01:18:11.340Z,3.90
2018-11-28T01:20:41.615Z,3.87
2018-11-28T01:23:11.877Z,3.67
2018-11-28T01:25:42.163Z,4.40
2018-11-28T01:28:12.524Z,3.20
2018-11-28T01:30:42.784Z,3.57
2018-11-28T01:33:13.060Z,3.30
2018-11-28T01:35:43.358Z,3.87
2018-11-28T01:38:13.690Z,3.67
2018-11-28T01:40:43.944Z,3.67
2018-11-28T01:43:14.228Z,3.53
2018-11-28T01:45:44.507Z,3.63
2018-11-28T01:48:14.800Z,3.53
2018-11-28T01:50:45.092Z,3.40
2018-11-28T01:53:15.705Z,2.97
2018-11-28T01:55:46.865Z,2.70
2018-11-28T01:58:17.129Z,4.03
2018-11-28T02:00:47.450Z,3.33
2018-11-28T02:03:17.724Z,3.20
2018-11-28T02:05:48.011Z,2.60
2018-11-28T02:08:18.335Z,2.97
2018-11-28T02:10:48.691Z,3.17
2018-11-28T02:13:18.910Z,3.60
2018-11-28T02:15:49.208Z,3.20
2018-11-28T02:18:19.468Z,3.50
2018-11-28T02:20:49.750Z,4.40
2018-11-28T02:23:20.013Z,4.70
2018-11-28T02:25:50.278Z,3.47
2018-11-28T02:28:20.563Z,3.13
2018-11-28T02:30:50.821Z,3.40
2018-11-28T02:33:21.115Z,3.70
2018-11-28T02:35:51.399Z,3.37
2018-11-28T02:38:21.634Z,3.43
2018-11-28T02:40:51.917Z,3.00
2018-11-28T02:43:22.179Z,2.77
2018-11-28T02:46:09.403Z,3.47
2018-11-28T02:48:39.647Z,2.17
2018-11-28T02:51:09.880Z,2.50
2018-11-28T02:53:40.109Z,2.90
2018-11-28T02:56:10.364Z,2.40
2018-11-28T02:58:40.604Z,3.40
2018-11-28T03:01:12.935Z,4.00
2018-11-28T03:03:43.175Z,2.87
2018-11-28T03:06:13.528Z,3.00
2018-11-28T03:08:43.777Z,2.70
2018-11-28T03:11:14.064Z,2.30
2018-11-28T03:13:44.304Z,2.57
2018-11-28T03:16:18.690Z,2.60
2018-11-28T03:18:49.189Z,2.70
2018-11-28T03:21:19.475Z,2.63
2018-11-28T03:23:49.719Z,2.67
2018-11-28T03:26:20.022Z,2.20
2018-11-28T03:28:50.344Z,3.47
2018-11-28T03:31:20.618Z,2.33
2018-11-28T03:33:50.840Z,2.30
2018-11-28T03:36:21.156Z,2.20
2018-11-28T03:38:51.404Z,2.87
2018-11-28T03:41:21.672Z,2.43
2018-11-28T03:43:51.932Z,2.00
2018-11-28T03:46:22.218Z,2.40
2018-11-28T03:48:52.471Z,2.60
2018-11-28T03:51:22.712Z,1.83
2018-11-28T03:53:52.996Z,2.17
2018-11-28T03:56:23.296Z,2.07
2018-11-28T03:58:53.559Z,2.10
2018-11-28T04:01:23.803Z,1.90
2018-11-28T04:03:54.072Z,2.00
2018-11-28T04:06:24.359Z,2.23
2018-11-28T04:08:54.646Z,2.27
2018-11-28T04:11:24.927Z,2.50
2018-11-28T04:13:55.197Z,1.80
2018-11-28T04:16:25.456Z,2.33
2018-11-28T04:18:55.748Z,2.57
2018-11-28T04:21:25.990Z,2.80
2018-11-28T04:23:56.279Z,2.80
2018-11-28T04:26:26.532Z,2.83
2018-11-28T04:28:56.823Z,3.73
2018-11-28T04:31:27.076Z,6.53
2018-11-28T04:33:57.339Z,8.93
2018-11-28T04:36:27.626Z,5.00
2018-11-28T04:38:57.861Z,2.90
2018-11-28T04:41:28.143Z,8.50
2018-11-28T04:43:58.407Z,12.20
2018-11-28T04:46:28.721Z,12.33
2018-11-28T04:48:58.988Z,4.80
2018-11-28T04:51:29.299Z,2.37
2018-11-28T04:53:59.559Z,2.97
2018-11-28T04:56:30.020Z,3.30
2018-11-28T04:59:00.275Z,3.53
2018-11-28T05:01:30.561Z,2.80
2018-11-28T05:04:00.846Z,2.70
2018-11-28T05:07:41.174Z,2.30
2018-11-28T05:10:17.768Z,3.23
2018-11-28T05:12:48.096Z,3.80
2018-11-28T05:15:20.889Z,2.77
2018-11-28T05:17:53.979Z,3.53
2018-11-28T05:20:26.970Z,4.17
2018-11-28T05:22:57.247Z,3.30
2018-11-28T05:25:28.585Z,3.60
2018-11-28T05:27:59.859Z,4.17
2018-11-28T05:30:31.522Z,3.50
2018-11-28T05:33:02.476Z,4.40
2018-11-28T05:35:35.641Z,4.00
2018-11-28T05:38:14.886Z,9.20
2018-11-28T05:40:45.922Z,10.90
2018-11-28T05:43:16.176Z,5.70
2018-11-28T05:45:46.479Z,4.70
2018-11-28T05:48:16.768Z,4.50
2018-11-28T05:50:47.084Z,3.60
2018-11-28T05:53:17.350Z,4.37
2018-11-28T05:55:47.656Z,5.40
2018-11-28T05:58:17.969Z,5.70
2018-11-28T06:00:48.255Z,6.07
2018-11-28T06:03:18.550Z,6.90
2018-11-28T06:05:48.811Z,5.43
2018-11-28T06:08:19.119Z,6.43
2018-11-28T06:10:49.394Z,6.90
2018-11-28T06:13:19.670Z,8.27
2018-11-28T06:15:49.929Z,7.27
2018-11-28T06:18:20.300Z,6.87
2018-11-28T06:20:50.558Z,6.47
2018-11-28T06:23:20.851Z,9.00
2018-11-28T06:25:51.187Z,17.50
2018-11-28T06:28:21.417Z,12.25
2018-11-28T06:30:51.784Z,7.37
2018-11-28T06:33:22.083Z,7.50
2018-11-28T06:35:52.319Z,8.13
2018-11-28T06:38:22.633Z,6.50
2018-11-28T06:40:53.476Z,7.37
2018-11-28T06:43:23.767Z,7.00
2018-11-28T06:45:54.051Z,9.20
2018-11-28T06:48:24.331Z,8.67
2018-11-28T06:50:54.619Z,11.13
2018-11-28T06:53:24.887Z,11.53
2018-11-28T06:55:55.922Z,22.07
2018-11-28T06:58:26.177Z,29.43
2018-11-28T07:00:56.485Z,19.87
2018-11-28T07:03:26.715Z,16.70
2018-11-28T07:05:57.013Z,8.90
2018-11-28T07:08:27.268Z,10.97
2018-11-28T07:10:57.608Z,9.53
2018-11-28T07:13:27.874Z,9.77
2018-11-28T07:15:58.194Z,8.70
2018-11-28T07:18:45.617Z,9.30
2018-11-28T07:21:15.937Z,9.00
2018-11-28T07:23:46.784Z,8.50
2018-11-28T07:26:17.055Z,16.23
2018-11-28T07:28:47.434Z,17.60
2018-11-28T07:31:17.756Z,74.83
2018-11-28T07:33:48.119Z,22.57
2018-11-28T07:36:18.389Z,11.20
2018-11-28T07:38:48.741Z,9.00
2018-11-28T07:41:19.029Z,9.47
2018-11-28T07:43:49.361Z,10.80
2018-11-28T07:46:19.695Z,10.80
2018-11-28T07:48:50.105Z,10.03
2018-11-28T07:51:20.408Z,9.37
2018-11-28T07:53:50.670Z,9.20
2018-11-28T07:56:20.937Z,9.20
2018-11-28T07:58:51.238Z,9.80
2018-11-28T08:01:21.684Z,10.77
2018-11-28T08:03:52.848Z,9.70
2018-11-28T08:06:23.088Z,10.57
2018-11-28T08:08:57.510Z,10.60
2018-11-28T08:11:27.864Z,9.70
2018-11-28T08:13:58.183Z,11.40
2018-11-28T08:16:28.478Z,11.07
2018-11-28T08:18:58.797Z,9.67
2018-11-28T08:21:29.082Z,10.13
2018-11-28T08:23:59.436Z,8.37
2018-11-28T08:26:29.867Z,13.60
2018-11-28T08:29:00.213Z,20.00
2018-11-28T08:31:30.516Z,22.57
2018-11-28T08:34:00.910Z,11.20
2018-11-28T08:36:31.150Z,9.30
2018-11-28T08:39:01.796Z,8.17
2018-11-28T08:41:31.773Z,9.27
2018-11-28T08:44:02.161Z,8.60
2018-11-28T08:46:32.490Z,8.97
2018-11-28T08:49:02.806Z,11.73
2018-11-28T08:51:33.104Z,16.60
2018-11-28T08:54:03.471Z,8.43
2018-11-28T08:56:33.711Z,9.37
2018-11-28T08:59:04.171Z,7.80
2018-11-28T09:01:34.438Z,9.03
2018-11-28T09:04:04.847Z,9.23
2018-11-28T09:06:35.142Z,9.63
2018-11-28T09:09:07.638Z,8.80
2018-11-28T09:11:38.006Z,9.07
2018-11-28T09:14:08.305Z,20.73
2018-11-28T09:16:38.611Z,16.00
2018-11-28T09:19:09.731Z,8.27
2018-11-28T09:21:40.097Z,6.10
2018-11-28T09:24:10.409Z,5.67
2018-11-28T09:26:40.777Z,5.37
2018-11-28T09:29:11.055Z,3.53
2018-11-28T09:31:41.406Z,4.17
2018-11-28T09:34:11.721Z,7.80
2018-11-28T09:36:42.034Z,5.67
2018-11-28T09:39:12.404Z,4.50
2018-11-28T09:41:42.754Z,2.30
2018-11-28T09:44:13.060Z,2.00
2018-11-28T09:46:43.334Z,1.90
2018-11-28T09:49:13.663Z,1.67
2018-11-28T09:51:43.971Z,1.83
2018-11-28T09:54:14.234Z,1.70
2018-11-28T09:56:44.600Z,1.80
2018-11-28T09:59:14.922Z,1.50
2018-11-28T10:01:45.207Z,1.97
2018-11-28T10:04:15.568Z,1.80
2018-11-28T10:06:45.837Z,1.67
2018-11-28T10:09:16.118Z,1.47
2018-11-28T10:11:46.400Z,2.00
2018-11-28T10:14:16.723Z,2.10
2018-11-28T10:16:47.729Z,2.10
2018-11-28T10:19:17.906Z,1.70
2018-11-28T10:21:48.204Z,1.60
2018-11-28T10:24:18.491Z,2.03
2018-11-28T10:26:48.798Z,1.63
2018-11-28T10:29:19.059Z,2.17
2018-11-28T10:31:49.357Z,2.20
2018-11-28T10:34:19.638Z,1.83
2018-11-28T10:36:50.131Z,1.83
2018-11-28T10:39:20.606Z,2.33
2018-11-28T10:41:51.093Z,2.40
2018-11-28T10:44:22.728Z,1.93
2018-11-28T10:46:53.007Z,2.50
2018-11-28T10:49:23.391Z,3.90
2018-11-28T10:51:53.691Z,4.10
2018-11-28T10:54:23.994Z,5.27
2018-11-28T10:56:54.260Z,2.63
2018-11-28T10:59:24.572Z,2.47
2018-11-28T11:02:00.047Z,2.40
2018-11-28T11:05:36.164Z,2.90
2018-11-28T11:08:12.197Z,2.73
2018-11-28T11:10:47.858Z,2.77
2018-11-28T11:13:23.316Z,2.70
2018-11-28T11:15:55.546Z,2.83
2018-11-28T11:18:26.586Z,2.50
2018-11-28T11:20:57.007Z,3.00
2018-11-28T11:23:27.283Z,2.60
2018-11-28T11:25:57.603Z,3.50
2018-11-28T11:28:27.915Z,2.50
2018-11-28T11:30:58.208Z,3.20
2018-11-28T11:33:28.500Z,2.70
2018-11-28T11:35:58.777Z,3.50
2018-11-28T11:38:29.049Z,2.93
2018-11-28T11:40:59.362Z,3.83
2018-11-28T11:43:29.635Z,3.60
2018-11-28T11:45:59.927Z,3.30
2018-11-28T11:48:30.279Z,4.13
2018-11-28T11:51:00.573Z,2.90
2018-11-28T11:53:30.873Z,4.00
2018-11-28T11:56:01.094Z,3.93
2018-11-28T11:58:31.363Z,3.70
2018-11-28T12:01:01.653Z,3.53
2018-11-28T12:03:31.938Z,4.30
2018-11-28T12:06:02.218Z,3.87
2018-11-28T12:08:32.505Z,3.80
2018-11-28T12:11:02.802Z,4.50
2018-11-28T12:13:33.109Z,3.97
2018-11-28T12:16:03.488Z,4.80
2018-11-28T12:18:33.770Z,4.70
2018-11-28T12:21:07.028Z,4.37
2018-11-28T12:23:37.720Z,4.37
2018-11-28T12:26:08.111Z,4.23
2018-11-28T12:28:38.401Z,4.27
2018-11-28T12:31:08.762Z,4.10
2018-11-28T12:33:39.039Z,3.67
2018-11-28T12:36:09.286Z,3.63
2018-11-28T12:38:39.600Z,3.50
2018-11-28T12:41:09.901Z,3.93
2018-11-28T12:43:40.168Z,3.80
2018-11-28T12:46:10.472Z,3.70
2018-11-28T12:48:40.798Z,4.23
2018-11-28T12:51:11.047Z,3.40
2018-11-28T12:53:41.283Z,3.57
2018-11-28T12:56:11.652Z,4.57
2018-11-28T12:58:41.906Z,3.50
2018-11-28T13:01:12.198Z,4.33
2018-11-28T13:03:42.479Z,4.20
2018-11-28T13:06:12.726Z,4.37
2018-11-28T13:08:42.933Z,3.70
2018-11-28T13:11:13.193Z,3.40
2018-11-28T13:13:43.493Z,3.57
2018-11-28T13:16:13.827Z,3.43
2018-11-28T13:18:44.070Z,3.90
2018-11-28T13:21:14.399Z,3.80
2018-11-28T13:23:44.656Z,3.50
2018-11-28T13:26:15.004Z,4.07
2018-11-28T13:28:45.245Z,3.60
2018-11-28T13:31:15.534Z,4.40
2018-11-28T13:33:45.794Z,3.83
2018-11-28T13:36:16.045Z,3.93
2018-11-28T13:38:46.350Z,3.77
2018-11-28T13:41:16.636Z,4.53
2018-11-28T13:43:46.891Z,3.70
2018-11-28T13:46:17.193Z,3.90
2018-11-28T13:48:47.424Z,3.70
2018-11-28T13:51:17.761Z,4.17
2018-11-28T13:53:48.023Z,4.50
2018-11-28T13:58:48.733Z,4.40
2018-11-28T14:01:19.029Z,4.33
2018-11-28T14:03:49.302Z,4.70
2018-11-28T14:06:19.579Z,4.70
2018-11-28T14:08:49.810Z,5.30
2018-11-28T14:11:20.107Z,4.07
2018-11-28T14:13:50.440Z,4.90
2018-11-28T14:16:20.768Z,4.80
2018-11-28T14:18:51.121Z,3.80
2018-11-28T14:21:21.401Z,4.00
2018-11-28T14:23:51.736Z,4.37
2018-11-28T14:26:22.072Z,4.20
2018-11-28T14:28:52.428Z,4.33
2018-11-28T14:31:22.729Z,4.80
2018-11-28T14:33:53.088Z,4.20
2018-11-28T14:36:23.403Z,4.37
2018-11-28T14:38:53.687Z,4.20
2018-11-28T14:41:23.979Z,3.83
2018-11-28T14:43:54.299Z,4.90
2018-11-28T14:46:24.601Z,5.97
2018-11-28T14:48:54.992Z,5.60
2018-11-28T14:51:25.304Z,5.00
2018-11-28T14:53:55.755Z,5.17
2018-11-28T14:56:26.056Z,4.80
2018-11-28T14:58:56.363Z,5.57
2018-11-28T15:01:26.643Z,5.63
2018-11-28T15:03:57.142Z,5.63
2018-11-28T15:06:43.720Z,5.60
2018-11-28T15:09:19.175Z,6.30
2018-11-28T15:11:49.467Z,5.30
2018-11-28T15:14:19.722Z,6.33
2018-11-28T15:16:50.059Z,6.70
2018-11-28T15:19:20.365Z,6.67
2018-11-28T15:21:51.035Z,6.37
2018-11-28T15:24:21.382Z,6.23
2018-11-28T15:26:51.699Z,6.93
2018-11-28T15:29:22.006Z,7.57
2018-11-28T15:31:52.407Z,6.53
2018-11-28T15:34:22.701Z,8.57
2018-11-28T15:36:53.038Z,7.50
2018-11-28T15:39:23.294Z,6.70
2018-11-28T15:41:54.377Z,8.23
2018-11-28T15:44:24.842Z,8.30
2018-11-28T15:46:55.519Z,6.97
2018-11-28T15:49:25.887Z,7.73
2018-11-28T15:51:56.203Z,7.77
2018-11-28T15:54:26.498Z,7.73
2018-11-28T15:56:56.820Z,8.03
2018-11-28T15:59:27.244Z,7.90
2018-11-28T16:01:58.016Z,8.30
2018-11-28T16:04:28.399Z,7.70
2018-11-28T16:06:58.842Z,9.83
2018-11-28T16:09:34.510Z,8.23
2018-11-28T16:12:04.917Z,7.70
2018-11-28T16:14:35.183Z,7.67
2018-11-28T16:17:05.567Z,8.40
2018-11-28T16:19:35.841Z,7.40
2018-11-28T16:22:06.478Z,12.27
2018-11-28T16:24:36.784Z,9.13
2018-11-28T16:27:07.960Z,8.20
2018-11-28T16:29:38.276Z,9.20
2018-11-28T16:32:08.588Z,9.87
2018-11-28T16:34:38.942Z,8.63
2018-11-28T16:37:09.250Z,8.90
2018-11-28T16:39:39.627Z,10.30
2018-11-28T16:42:09.895Z,10.00
2018-11-28T16:44:40.205Z,10.60
2018-11-28T16:47:10.465Z,9.60
2018-11-28T16:49:40.747Z,8.50
2018-11-28T16:52:11.024Z,9.47
2018-11-28T16:54:41.278Z,10.17
2018-11-28T16:57:11.640Z,11.60
2018-11-28T16:59:41.975Z,10.40
2018-11-28T17:02:12.231Z,11.50
2018-11-28T17:04:42.493Z,12.00
2018-11-28T17:07:12.850Z,11.97
2018-11-28T17:09:43.249Z,12.67
2018-11-28T17:12:13.679Z,10.70
2018-11-28T17:14:43.982Z,13.33
2018-11-28T17:17:14.317Z,12.67
2018-11-28T17:19:44.599Z,11.50
2018-11-28T17:22:14.916Z,12.43
2018-11-28T17:24:45.236Z,13.07
2018-11-28T17:27:15.542Z,11.77
2018-11-28T17:29:45.866Z,12.07
2018-11-28T17:32:16.172Z,13.30
2018-11-28T17:34:46.524Z,12.63
2018-11-28T17:37:16.815Z,13.10
2018-11-28T17:39:47.177Z,13.30
2018-11-28T17:42:17.468Z,11.73
2018-11-28T17:44:47.705Z,12.00
2018-11-28T17:47:18.047Z,13.97
2018-11-28T17:49:48.350Z,12.87
2018-11-28T17:52:18.710Z,13.40
2018-11-28T17:54:49.008Z,12.57
2018-11-28T17:57:19.272Z,12.40
2018-11-28T17:59:49.576Z,14.60
2018-11-28T18:02:19.866Z,16.50
2018-11-28T18:04:50.162Z,25.50
2018-11-28T18:07:20.447Z,13.00
2018-11-28T18:09:50.740Z,13.50
2018-11-28T18:12:21.110Z,13.97
2018-11-28T18:14:51.396Z,12.83
2018-11-28T18:17:21.663Z,12.70
2018-11-28T18:19:51.949Z,13.47
2018-11-28T18:22:22.244Z,13.10
2018-11-28T18:24:52.540Z,14.03
2018-11-28T18:27:22.890Z,14.90
2018-11-28T18:29:53.247Z,15.10
2018-11-28T18:32:23.580Z,16.37
2018-11-28T18:34:53.919Z,14.93
2018-11-28T18:37:24.490Z,17.23
2018-11-28T18:39:54.535Z,18.80
2018-11-28T18:42:24.822Z,16.30
2018-11-28T18:44:55.132Z,18.00
2018-11-28T18:47:25.455Z,16.17
2018-11-28T18:49:55.785Z,17.40
2018-11-28T18:52:26.114Z,17.50
2018-11-28T18:54:56.453Z,18.30
2018-11-28T18:57:26.808Z,19.57
2018-11-28T18:59:57.131Z,18.30
2018-11-28T19:02:27.458Z,18.70
2018-11-28T19:04:57.838Z,19.93
2018-11-28T19:07:28.190Z,18.37
2018-11-28T19:09:58.585Z,18.07
2018-11-28T19:12:28.957Z,17.07
2018-11-28T19:14:59.298Z,18.60
2018-11-28T19:17:29.613Z,18.30
2018-11-28T19:19:59.935Z,19.27
2018-11-28T19:22:30.231Z,17.80
2018-11-28T19:25:01.214Z,17.70
2018-11-28T19:27:31.503Z,18.30
2018-11-28T19:30:01.846Z,18.10
2018-11-28T19:32:32.129Z,18.03
2018-11-28T19:35:02.577Z,17.70
2018-11-28T19:37:32.960Z,17.83
2018-11-28T19:40:05.194Z,17.90
2018-11-28T19:42:35.871Z,17.97
2018-11-28T19:45:07.904Z,17.80
2018-11-28T19:47:38.175Z,19.90
2018-11-28T19:50:14.693Z,17.77
2018-11-28T19:52:44.991Z,21.10
2018-11-28T19:55:15.343Z,20.77
2018-11-28T19:57:45.705Z,21.23
2018-11-28T20:00:18.571Z,21.30
2018-11-28T20:02:49.196Z,18.80
2018-11-28T20:05:19.570Z,22.30
2018-11-28T20:07:51.195Z,25.00
2018-11-28T20:10:23.075Z,24.50
2018-11-28T20:12:53.422Z,24.00
2018-11-28T20:15:27.854Z,24.33
2018-11-28T20:18:00.475Z,22.67
2018-11-28T20:20:30.859Z,23.30
2018-11-28T20:23:01.616Z,21.03
2018-11-28T20:25:31.988Z,22.73
2018-11-28T20:28:02.249Z,21.83
2018-11-28T20:30:36.426Z,22.20
2018-11-28T20:33:07.518Z,22.50
2018-11-28T20:35:38.872Z,21.57
2018-11-28T20:38:15.044Z,23.73
2018-11-28T20:40:45.369Z,25.07
2018-11-28T20:43:15.801Z,25.10
2018-11-28T20:45:46.242Z,24.50
2018-11-28T20:48:16.798Z,24.43
2018-11-28T20:50:47.197Z,22.90
2018-11-28T20:53:19.251Z,24.20
2018-11-28T20:55:49.799Z,22.87
2018-11-28T20:58:21.946Z,24.60
2018-11-28T21:00:52.467Z,23.97
2018-11-28T21:03:22.998Z,22.10
2018-11-28T21:05:53.316Z,20.90
2018-11-28T21:08:23.672Z,21.07
2018-11-28T21:10:54.050Z,21.00
2018-11-28T21:13:24.375Z,24.97
2018-11-28T21:15:54.729Z,26.10
2018-11-28T21:18:25.057Z,31.60
2018-11-28T21:20:55.398Z,29.53
2018-11-28T21:23:25.711Z,29.20
2018-11-28T21:25:56.026Z,29.27
2018-11-28T21:28:26.291Z,31.73
2018-11-28T21:30:56.587Z,32.60
2018-11-28T21:33:26.905Z,31.47
2018-11-28T21:35:57.297Z,31.30
2018-11-28T21:38:27.593Z,32.33
2018-11-28T21:40:57.887Z,31.43
2018-11-28T21:43:28.961Z,30.53
2018-11-28T21:45:59.218Z,32.83
2018-11-28T21:48:29.503Z,31.50
2018-11-28T21:50:59.762Z,28.50
2018-11-28T21:53:30.082Z,29.87
2018-11-28T21:56:00.354Z,25.13
2018-11-28T21:58:30.681Z,28.43
2018-11-28T22:01:01.025Z,26.70
2018-11-28T22:03:31.366Z,22.97
2018-11-28T22:06:01.713Z,22.23
2018-11-28T22:08:32.800Z,23.17
2018-11-28T22:11:03.082Z,24.10
2018-11-28T22:13:33.491Z,23.90
2018-11-28T22:16:03.800Z,22.90
2018-11-28T22:18:34.159Z,24.87
2018-11-28T22:21:04.492Z,24.17
2018-11-28T22:23:34.823Z,23.20
2018-11-28T22:26:05.176Z,24.60
2018-11-28T22:28:35.467Z,20.73
2018-11-28T22:31:06.407Z,19.73
2018-11-28T22:33:36.767Z,22.60
2018-11-28T22:36:07.178Z,22.57
2018-11-28T22:38:37.504Z,21.57
2018-11-28T22:41:07.906Z,20.90
2018-11-28T22:43:38.232Z,23.07
2018-11-28T22:46:08.591Z,22.17
2018-11-28T22:48:38.887Z,19.13
2018-11-28T22:51:09.228Z,20.57
2018-11-28T22:53:39.528Z,22.40
2018-11-28T22:56:09.890Z,22.47
2018-11-28T22:58:40.189Z,20.83
2018-11-28T23:01:11.719Z,22.00
2018-11-28T23:03:42.011Z,20.23
2018-11-28T23:06:12.292Z,20.33
2018-11-28T23:08:42.565Z,22.57
2018-11-28T23:11:12.893Z,22.17
2018-11-28T23:13:43.197Z,19.50
2018-11-28T23:16:13.525Z,20.87
2018-11-28T23:18:43.898Z,22.13
2018-11-28T23:21:14.230Z,21.30
2018-11-28T23:23:44.559Z,21.97
2018-11-28T23:26:14.872Z,23.77
2018-11-28T23:28:45.183Z,22.50
2018-11-28T23:31:15.458Z,22.27
2018-11-28T23:33:45.858Z,24.50
2018-11-28T23:36:16.163Z,22.13
2018-11-28T23:38:46.484Z,22.87
2018-11-28T23:41:16.727Z,20.40
2018-11-28T23:43:47.148Z,20.40
2018-11-28T23:46:17.431Z,23.97
2018-11-28T23:48:47.727Z,20.53
2018-11-28T23:51:18.186Z,20.63
2018-11-28T23:53:48.543Z,23.57
2018-11-28T23:56:18.799Z,20.93
2018-11-28T23:58:49.099Z,22.73
